• Join FlightAware (Why Join?)
  • Login
  • US Flag 
07:30PM EST


 

Airport Tracker/Info


-or-


 

Live Flight TrackerFlight Track Log ✈ N12SN ✈ 10-Aug-2013 ✈ KBKL - KFNT

Flight Track Log - Related Links

Times and Time Zones

All times are in EDT time to prevent confusion due to time zone crossing. See the N12SN flight status page for this flight to view local times or setup timezone preferences in your user account.

Time Position Orientation Groundspeed Altitude Reporting Facility
EDT Latitude Longitude Course Direction KTS MPH feet Rate Location/Type
03:46PM 41.5253 -81.6703 344° North 107 123 900  Level Cleveland Center
03:47PM 41.5711 -81.6878 344° North 138 159 2,100 780 Climbing Cleveland Center
03:48PM 41.5956 -81.7297 308° West 151 174 2,900 780 Climbing Cleveland Center
03:49PM 41.6056 -81.7828 284° West 151 174 3,700 540 Climbing Cleveland Center
03:50PM 41.6217 -81.8358 292° West 163 188 4,000 120 Climbing Cleveland Center
03:51PM 41.6397 -81.9000 291° West 177 204 4,000  Level Cleveland Center
03:52PM 41.6556 -81.9589 290° West 167 192 4,000  Level Cleveland Center
03:53PM 41.6717 -82.0203 289° West 168 193 4,000  Level Cleveland Center
03:54PM 41.6897 -82.0764 293° West 165 190 4,000  Level Cleveland Center
03:55PM 41.7056 -82.1350 290° West 166 191 4,000  Level Cleveland Center
03:56PM 41.7214 -82.1911 291° West 168 193 4,000  Level Cleveland Center
03:57PM 41.7372 -82.2500 290° West 169 194 4,000  Level Cleveland Center
03:58PM 41.7572 -82.3144 293° West 167 192 4,000  Level Cleveland Center
03:59PM 41.7708 -82.3761 287° West 170 196 4,000  Level Cleveland Center
04:00PM 41.7886 -82.4406 290° West 169 194 4,000  Level Cleveland Center
04:01PM 41.8083 -82.5053 292° West 169 194 4,000  Level Cleveland Center
04:03PM 41.8242 -82.5614 291° West 169 194 4,000  Level Cleveland Center
04:04PM 41.8439 -82.6178 295° West 167 192 4,000  Level Cleveland Center
04:05PM 41.8892 -82.6472 334° Northwest 171 197 4,000  Level Cleveland Center
04:06PM 41.9347 -82.6711 339° North 167 192 4,000  Level Cleveland Center
04:07PM 41.9803 -82.6919 341° North 164 189 4,000  Level Cleveland Center
04:08PM 42.0194 -82.7158 336° Northwest 165 190 4,000  Level Cleveland Center
04:09PM 42.0539 -82.7561 319° Northwest 166 191 4,000  Level Cleveland Center
04:10PM 42.0969 -82.7994 323° Northwest 171 197 4,000  Level Cleveland Center
04:11PM 42.1297 -82.8369 320° Northwest 169 194 4,000  Level Cleveland Center
04:12PM 42.1683 -82.8775 322° Northwest 171 197 4,000  Level Cleveland Center
04:13PM 42.2031 -82.9181 319° Northwest 166 191 4,000  Level Cleveland Center
04:14PM 42.2378 -82.9531 323° Northwest 166 191 4,000  Level Cleveland Center
04:15PM 42.2722 -82.9936 319° Northwest 165 190 4,000  Level Cleveland Center
04:16PM 42.3111 -83.0317 324° Northwest 163 188 4,000  Level Cleveland Center
04:17PM 42.3519 -83.0753 322° Northwest 180 207 4,000  Level Cleveland Center
04:18PM 42.3844 -83.1131 319° Northwest 174 200 4,000  Level Cleveland Center
04:19PM 42.4292 -83.1600 322° Northwest 170 196 4,000  Level Cleveland Center
04:20PM 42.4658 -83.2008 321° Northwest 164 189 4,000  Level Cleveland Center
04:21PM 42.5003 -83.2417 319° Northwest 166 191 4,000  Level Cleveland Center
04:22PM 42.5369 -83.2772 324° Northwest 166 191 4,000  Level Cleveland Center
04:23PM 42.5756 -83.3183 322° Northwest 165 190 4,000  Level Cleveland Center
04:24PM 42.6103 -83.3536 323° Northwest 161 185 4,000  Level Cleveland Center
04:26PM 42.6760 -83.4067 329° Northwest  Level FlightAware Approximate
04:33PM 42.9382 -83.7097 304° West  Level FlightAware Approximate
04:34PM 42.9500 -83.7333 304° West  Level FlightAware Approximate
04:35PM 42.9654 -83.7437 304° West  Level Estimated
04:36PM 42.9654 -83.7437 304° West  Level Estimated
04:37PM 42.9654 -83.7437 304° West  Level Estimated
04:38PM 42.9654 -83.7437 304° West  Level Estimated
04:39PM 42.9654 -83.7437 304° West  Level Estimated
04:40PM 42.9654 -83.7437 304° West  Level Estimated
04:41PM 42.9654 -83.7437 304° West  Level Estimated
04:42PM 42.9654 -83.7437 304° West  Level Estimated
04:43PM 42.9654 -83.7437 304° West  Level Estimated
04:44PM 42.9654 -83.7437 304° West  Level Estimated